Wetterdaten: Woche 28.01.13 - 03.02.13 (KW5)
Datum Zeit Temp. A. Feuchte A. Luftdruck Regen Wind Richtung Taupunkt Windchill Windben
28.01.2013 00:00 -5,5 C 86 % 1012,0 hPa 0,0 l/m 0,0 km/h N -7,5 C -5,5 C 0,0 km/h
28.01.2013 01:00 -5,3 C 86 % 1011,8 hPa 0,0 l/m 0,0 km/h N -7,3 C -5,3 C 0,0 km/h
28.01.2013 02:00 -5,0 C 86 % 1011,9 hPa 0,0 l/m 0,0 km/h N -7,0 C -5,0 C 0,0 km/h
28.01.2013 03:00 -4,8 C 86 % 1011,7 hPa 0,0 l/m 0,0 km/h N -6,8 C -4,8 C 0,0 km/h
28.01.2013 04:00 -4,6 C 86 % 1012,0 hPa 0,0 l/m 0,1 km/h N -6,6 C -4,6 C 1,6 km/h
28.01.2013 05:00 -4,5 C 86 % 1012,3 hPa 0,0 l/m 0,3 km/h N -6,5 C -4,5 C 1,6 km/h
28.01.2013 06:00 -4,3 C 86 % 1012,8 hPa 0,0 l/m 0,7 km/h N -6,3 C -4,3 C 3,6 km/h
28.01.2013 07:00 -4,1 C 86 % 1013,6 hPa 0,0 l/m 0,1 km/h N -6,1 C -4,1 C 0,8 km/h
28.01.2013 08:00 -3,8 C 86 % 1014,3 hPa 0,0 l/m 0,0 km/h N -5,8 C -3,8 C 0,0 km/h
28.01.2013 09:00 -2,9 C 86 % 1014,8 hPa 0,0 l/m 0,0 km/h N -4,9 C -2,9 C 0,0 km/h
28.01.2013 10:00 -2,5 C 86 % 1015,5 hPa 0,0 l/m 0,0 km/h N -4,5 C -2,5 C 0,0 km/h
28.01.2013 11:00 -1,4 C 86 % 1016,2 hPa 0,0 l/m 0,0 km/h N -3,5 C -1,4 C 0,0 km/h
28.01.2013 12:00 -0,7 C 86 % 1016,7 hPa 0,0 l/m 0,0 km/h N -2,7 C -0,7 C 0,0 km/h
28.01.2013 13:00 -0,3 C 86 % 1017,2 hPa 0,3 l/m 0,0 km/h N -2,4 C -0,3 C 0,4 km/h
28.01.2013 14:00 -0,1 C 85 % 1017,7 hPa 0,0 l/m 0,0 km/h N -2,3 C -0,1 C 1,2 km/h
28.01.2013 15:00 0,7 C 86 % 1018,3 hPa 0,0 l/m 2,3 km/h N -1,5 C 0,7 C 8,1 km/h
28.01.2013 16:00 2,8 C 84 % 1018,9 hPa 0,3 l/m 8,9 km/h N 0,3 C 0,5 C 21,7 km/h
28.01.2013 17:00 2,7 C 82 % 1019,3 hPa 0,8 l/m 4,4 km/h N -0,1 C 2,7 C 12,9 km/h
28.01.2013 18:00 2,4 C 83 % 1019,8 hPa 0,0 l/m 2,3 km/h N -0,2 C 2,4 C 10,1 km/h
28.01.2013 19:00 3,5 C 81 % 1020,1 hPa 1,0 l/m 9,5 km/h N 0,4 C 0,9 C 21,3 km/h
28.01.2013 20:00 3,9 C 79 % 1020,2 hPa 1,0 l/m 8,3 km/h N 0,6 C 2,3 C 20,1 km/h
28.01.2013 21:00 3,9 C 79 % 1020,6 hPa 1,0 l/m 10,1 km/h N 0,6 C 0,8 C 22,9 km/h
28.01.2013 22:00 3,7 C 79 % 1021,0 hPa 0,8 l/m 6,6 km/h N 0,3 C 2,9 C 16,9 km/h
28.01.2013 23:00 3,3 C 79 % 1021,1 hPa 0,3 l/m 3,3 km/h N -0,0 C 3,3 C 14,5 km/h
29.01.2013 00:00 1,4 C 78 % 1021,3 hPa 0,0 l/m 0,4 km/h N -2,1 C 1,4 C 5,2 km/h
29.01.2013 01:00 -1,2 C 83 % 1021,4 hPa 0,0 l/m 0,4 km/h N -3,7 C -1,2 C 4,8 km/h
29.01.2013 02:00 -2,5 C 86 % 1021,5 hPa 0,0 l/m 0,7 km/h N -4,6 C -2,5 C 5,6 km/h
29.01.2013 03:00 -2,9 C 86 % 1020,8 hPa 0,0 l/m 0,2 km/h N -4,9 C -2,9 C 2,8 km/h
29.01.2013 04:00 -2,6 C 86 % 1020,5 hPa 0,0 l/m 0,1 km/h N -4,7 C -2,6 C 0,8 km/h
29.01.2013 05:00 -2,7 C 85 % 1020,5 hPa 0,0 l/m 0,0 km/h N -4,9 C -2,7 C 0,0 km/h
29.01.2013 06:00 -2,9 C 85 % 1019,8 hPa 0,0 l/m 0,2 km/h N -5,1 C -2,9 C 2,0 km/h
29.01.2013 07:00 -2,5 C 84 % 1019,1 hPa 0,0 l/m 0,4 km/h N -4,9 C -2,5 C 2,4 km/h
29.01.2013 08:00 -1,4 C 83 % 1018,7 hPa 0,0 l/m 0,4 km/h N -4,0 C -1,4 C 3,6 km/h
29.01.2013 09:00 0,4 C 81 % 1017,7 hPa 0,0 l/m 0,1 km/h N -2,4 C 0,4 C 1,6 km/h
29.01.2013 10:00 1,7 C 82 % 1017,3 hPa 0,5 l/m 1,4 km/h N -1,0 C 1,7 C 5,6 km/h
29.01.2013 11:00 4,7 C 77 % 1017,0 hPa 0,5 l/m 4,9 km/h N 1,0 C 4,7 C 18,5 km/h
29.01.2013 12:00 6,2 C 76 % 1016,3 hPa 0,8 l/m 14,4 km/h N 2,3 C 0,9 C 35,4 km/h
29.01.2013 13:00 5,7 C 81 % 1016,0 hPa 2,1 l/m 16,0 km/h N 2,7 C -0,6 C 37,0 km/h
29.01.2013 14:00 5,9 C 81 % 1015,5 hPa 0,8 l/m 16,3 km/h N 2,8 C -0,4 C 37,4 km/h
29.01.2013 15:00 6,2 C 80 % 1015,6 hPa 1,0 l/m 17,1 km/h N 3,1 C -0,4 C 35,4 km/h
29.01.2013 16:00 6,2 C 81 % 1015,4 hPa 0,3 l/m 12,4 km/h N 3,2 C 1,9 C 33,8 km/h
29.01.2013 17:00 6,6 C 80 % 1015,3 hPa 0,3 l/m 10,6 km/h N 3,4 C 3,4 C 31,0 km/h
29.01.2013 18:00 6,9 C 80 % 1015,1 hPa 0,3 l/m 12,9 km/h N 3,6 C 2,4 C 32,2 km/h
29.01.2013 19:00 7,0 C 80 % 1014,9 hPa 0,5 l/m 14,3 km/h N 3,8 C 1,8 C 37,4 km/h
29.01.2013 20:00 7,2 C 79 % 1015,1 hPa 0,5 l/m 16,5 km/h N 3,9 C 1,1 C 43,4 km/h
29.01.2013 21:00 6,8 C 83 % 1015,5 hPa 0,5 l/m 13,9 km/h N 4,1 C 1,8 C 36,6 km/h
29.01.2013 22:00 7,0 C 84 % 1015,4 hPa 0,3 l/m 14,7 km/h N 4,5 C 1,7 C 39,0 km/h
29.01.2013 23:00 7,3 C 84 % 1015,4 hPa 0,5 l/m 15,8 km/h N 4,7 C 1,5 C 39,8 km/h
30.01.2013 00:00 7,7 C 83 % 1015,2 hPa 0,5 l/m 17,4 km/h N 4,9 C 1,3 C 40,6 km/h
30.01.2013 01:00 8,4 C 81 % 1014,6 hPa 0,0 l/m 19,1 km/h N 5,3 C 1,5 C 39,8 km/h
30.01.2013 02:00 8,6 C 81 % 1014,1 hPa 0,0 l/m 16,9 km/h N 5,4 C 2,6 C 37,0 km/h
30.01.2013 03:00 9,3 C 80 % 1013,7 hPa 0,3 l/m 18,6 km/h N 6,0 C 2,9 C 38,6 km/h
30.01.2013 04:00 9,2 C 83 % 1013,7 hPa 1,6 l/m 16,0 km/h N 6,4 C 3,8 C 41,0 km/h
30.01.2013 05:00 9,6 C 82 % 1013,8 hPa 0,0 l/m 15,4 km/h N 6,6 C 4,6 C 36,6 km/h
30.01.2013 06:00 9,8 C 82 % 1014,3 hPa 1,0 l/m 14,2 km/h N 6,8 C 5,3 C 35,8 km/h
30.01.2013 07:00 10,3 C 80 % 1014,4 hPa 0,0 l/m 15,9 km/h N 6,9 C 5,1 C 36,2 km/h
30.01.2013 08:00 10,8 C 77 % 1014,4 hPa 0,0 l/m 16,4 km/h N 6,9 C 5,7 C 36,6 km/h
30.01.2013 09:00 10,8 C 77 % 1014,6 hPa 0,0 l/m 15,8 km/h N 6,8 C 5,9 C 33,4 km/h
30.01.2013 10:00 11,2 C 75 % 1014,4 hPa 0,0 l/m 14,3 km/h N 7,0 C 6,9 C 31,0 km/h
30.01.2013 11:00 11,8 C 74 % 1014,0 hPa 0,0 l/m 11,1 km/h N 7,3 C 9,2 C 28,2 km/h
30.01.2013 12:00 12,2 C 75 % 1013,3 hPa 0,0 l/m 8,5 km/h N 7,8 C 10,9 C 22,1 km/h
30.01.2013 13:00 13,7 C 69 % 1012,3 hPa 0,0 l/m 9,9 km/h N 8,2 C 11,7 C 23,3 km/h
30.01.2013 14:00 14,3 C 65 % 1011,2 hPa 0,0 l/m 8,6 km/h N 7,9 C 13,1 C 22,5 km/h
30.01.2013 15:00 14,5 C 65 % 1010,6 hPa 0,0 l/m 4,8 km/h N 7,8 C 14,3 C 14,5 km/h
30.01.2013 16:00 14,4 C 64 % 1010,0 hPa 0,0 l/m 6,6 km/h N 7,6 C 13,9 C 20,5 km/h
30.01.2013 17:00 13,6 C 65 % 1009,7 hPa 0,0 l/m 3,3 km/h N 7,1 C 13,4 C 10,4 km/h
30.01.2013 18:00 10,9 C 73 % 1009,5 hPa 0,0 l/m 0,9 km/h N 6,3 C 10,9 C 8,4 km/h
30.01.2013 19:00 10,4 C 75 % 1008,8 hPa 0,0 l/m 0,8 km/h N 6,2 C 10,4 C 6,4 km/h
30.01.2013 20:00 13,1 C 66 % 1008,2 hPa 0,0 l/m 2,6 km/h N 6,9 C 13,1 C 13,7 km/h
30.01.2013 21:00 15,2 C 60 % 1008,3 hPa 0,0 l/m 10,4 km/h N 7,5 C 13,4 C 29,8 km/h
30.01.2013 22:00 14,6 C 64 % 1008,0 hPa 0,0 l/m 13,2 km/h N 7,8 C 11,4 C 39,8 km/h
30.01.2013 23:00 14,4 C 64 % 1008,4 hPa 0,0 l/m 15,1 km/h N 7,8 C 10,5 C 38,6 km/h
31.01.2013 00:00 10,1 C 76 % 1011,4 hPa 0,8 l/m 21,3 km/h N 6,0 C 3,1 C 47,1 km/h
31.01.2013 01:00 10,1 C 67 % 1012,5 hPa 0,0 l/m 14,7 km/h N 4,1 C 5,3 C 39,5 km/h
31.01.2013 02:00 9,9 C 64 % 1013,2 hPa 0,0 l/m 19,7 km/h N 3,5 C 3,3 C 47,5 km/h
31.01.2013 03:00 9,0 C 69 % 1014,0 hPa 0,0 l/m 22,5 km/h N 3,6 C 1,2 C 47,5 km/h
31.01.2013 04:00 8,6 C 67 % 1013,7 hPa 0,0 l/m 17,2 km/h N 2,8 C 2,7 C 39,0 km/h
31.01.2013 05:00 8,6 C 66 % 1014,3 hPa 0,0 l/m 23,1 km/h N 2,6 C 0,5 C 47,5 km/h
31.01.2013 06:00 8,5 C 65 % 1015,0 hPa 0,0 l/m 17,8 km/h N 2,2 C 2,2 C 45,1 km/h
31.01.2013 07:00 8,4 C 62 % 1015,8 hPa 0,0 l/m 15,0 km/h N 1,5 C 3,2 C 35,4 km/h
31.01.2013 08:00 8,3 C 54 % 1016,6 hPa 0,0 l/m 16,7 km/h N -0,5 C 2,4 C 43,0 km/h
31.01.2013 09:00 8,9 C 52 % 1016,5 hPa 0,0 l/m 19,3 km/h N -0,5 C 2,1 C 43,8 km/h
31.01.2013 10:00 9,3 C 54 % 1017,2 hPa 0,0 l/m 23,9 km/h N 0,6 C 1,2 C 53,1 km/h
31.01.2013 11:00 10,2 C 55 % 1016,5 hPa 0,0 l/m 20,2 km/h N 1,5 C 3,5 C 45,9 km/h
31.01.2013 12:00 10,6 C 48 % 1015,5 hPa 0,0 l/m 21,9 km/h N 0,1 C 3,6 C 55,5 km/h
31.01.2013 13:00 10,4 C 46 % 1015,5 hPa 0,0 l/m 17,6 km/h N -0,8 C 4,6 C 47,1 km/h
31.01.2013 14:00 10,4 C 43 % 1015,0 hPa 0,0 l/m 14,8 km/h N -1,8 C 5,7 C 36,2 km/h
31.01.2013 15:00 11,2 C 38 % 1013,9 hPa 0,0 l/m 13,1 km/h N -2,7 C 7,4 C 34,6 km/h
31.01.2013 16:00 11,2 C 41 % 1012,1 hPa 0,0 l/m 9,2 km/h N -1,6 C 9,5 C 23,7 km/h
31.01.2013 17:00 10,8 C 37 % 1011,4 hPa 0,0 l/m 5,3 km/h N -3,5 C 10,0 C 16,5 km/h
31.01.2013 18:00 11,7 C 38 % 1011,8 hPa 0,0 l/m 11,1 km/h N -2,1 C 8,9 C 33,0 km/h
31.01.2013 19:00 11,7 C 39 % 1012,0 hPa 0,0 l/m 11,1 km/h N -2,0 C 8,9 C 31,8 km/h
31.01.2013 20:00 11,8 C 39 % 1011,5 hPa 0,0 l/m 14,9 km/h N -1,8 C 7,4 C 42,2 km/h
31.01.2013 21:00 11,2 C 42 % 1011,2 hPa 0,0 l/m 12,8 km/h N -1,2 C 7,5 C 37,0 km/h
31.01.2013 22:00 10,9 C 44 % 1010,8 hPa 0,0 l/m 8,5 km/h N -0,8 C 9,2 C 28,5 km/h
31.01.2013 23:00 10,3 C 51 % 1010,9 hPa 0,0 l/m 12,6 km/h N 0,6 C 6,7 C 31,0 km/h
01.02.2013 00:00 9,8 C 55 % 1010,8 hPa 0,0 l/m 12,9 km/h N 1,1 C 5,9 C 33,0 km/h
01.02.2013 01:00 9,0 C 63 % 1011,2 hPa 0,0 l/m 11,6 km/h N 2,3 C 5,7 C 30,2 km/h
01.02.2013 02:00 8,9 C 61 % 1011,8 hPa 0,0 l/m 9,4 km/h N 1,7 C 6,8 C 22,1 km/h
01.02.2013 03:00 7,3 C 67 % 1012,1 hPa 0,0 l/m 4,4 km/h N 1,5 C 7,3 C 12,1 km/h
01.02.2013 04:00 7,4 C 70 % 1011,7 hPa 0,0 l/m 11,6 km/h N 2,2 C 3,7 C 31,0 km/h
01.02.2013 05:00 8,3 C 63 % 1011,2 hPa 0,0 l/m 17,8 km/h N 1,7 C 2,0 C 41,4 km/h
01.02.2013 06:00 8,3 C 64 % 1011,3 hPa 0,0 l/m 18,6 km/h N 1,8 C 1,6 C 43,0 km/h
01.02.2013 07:00 8,3 C 63 % 1011,1 hPa 0,0 l/m 18,2 km/h N 1,5 C 1,7 C 40,6 km/h
01.02.2013 08:00 8,3 C 63 % 1010,7 hPa 0,0 l/m 19,2 km/h N 1,6 C 1,4 C 39,4 km/h
01.02.2013 09:00 8,9 C 63 % 1010,0 hPa 0,0 l/m 20,7 km/h N 2,1 C 1,6 C 41,8 km/h
01.02.2013 10:00 9,7 C 57 % 1009,1 hPa 0,0 l/m 22,1 km/h N 1,5 C 2,3 C 49,1 km/h
01.02.2013 11:00 10,1 C 53 % 1009,5 hPa 0,0 l/m 15,3 km/h N 0,9 C 5,2 C 35,8 km/h
01.02.2013 12:00 10,3 C 57 % 1009,6 hPa 0,0 l/m 10,8 km/h N 2,2 C 7,6 C 29,0 km/h
01.02.2013 13:00 10,0 C 56 % 1009,3 hPa 0,0 l/m 6,7 km/h N 1,6 C 9,5 C 22,5 km/h
01.02.2013 14:00 9,2 C 56 % 1008,2 hPa 0,0 l/m 2,8 km/h N 0,8 C 9,2 C 11,3 km/h
01.02.2013 15:00 9,0 C 55 % 1006,7 hPa 0,0 l/m 0,6 km/h N 0,5 C 9,0 C 4,8 km/h
01.02.2013 16:00 8,7 C 57 % 1005,2 hPa 0,0 l/m 0,8 km/h N 0,5 C 8,7 C 6,0 km/h
01.02.2013 17:00 8,1 C 65 % 1003,7 hPa 0,0 l/m 0,5 km/h N 1,9 C 8,1 C 5,2 km/h
01.02.2013 18:00 7,5 C 68 % 1001,9 hPa 0,0 l/m 0,8 km/h N 1,9 C 7,5 C 5,6 km/h
01.02.2013 19:00 7,2 C 66 % 1000,1 hPa 0,0 l/m 1,6 km/h N 1,2 C 7,2 C 8,1 km/h
01.02.2013 20:00 6,6 C 66 % 998,6 hPa 0,0 l/m 1,1 km/h N 0,6 C 6,6 C 7,2 km/h
01.02.2013 21:00 6,0 C 70 % 997,3 hPa 0,0 l/m 0,3 km/h N 1,0 C 6,0 C 3,6 km/h
01.02.2013 22:00 5,0 C 76 % 995,9 hPa 0,0 l/m 0,0 km/h N 1,1 C 5,0 C 1,2 km/h
01.02.2013 23:00 3,5 C 80 % 994,8 hPa 0,0 l/m 0,0 km/h N 0,2 C 3,5 C 0,0 km/h
02.02.2013 00:00 3,3 C 83 % 993,5 hPa 0,0 l/m 0,0 km/h N 0,7 C 3,3 C 0,0 km/h
02.02.2013 01:00 3,1 C 84 % 992,4 hPa 0,0 l/m 0,0 km/h N 0,6 C 3,1 C 0,0 km/h
02.02.2013 02:00 3,4 C 85 % 991,4 hPa 0,0 l/m 0,3 km/h N 1,1 C 3,4 C 4,0 km/h
02.02.2013 03:00 3,4 C 84 % 990,4 hPa 0,0 l/m 0,0 km/h N 1,0 C 3,4 C 0,0 km/h
02.02.2013 04:00 3,3 C 84 % 989,9 hPa 0,0 l/m 0,4 km/h N 0,9 C 3,3 C 2,8 km/h
02.02.2013 05:00 3,3 C 85 % 989,3 hPa 0,0 l/m 0,3 km/h N 0,9 C 3,3 C 2,4 km/h
02.02.2013 06:00 3,0 C 85 % 988,8 hPa 0,0 l/m 0,4 km/h N 0,7 C 3,0 C 3,2 km/h
02.02.2013 07:00 2,9 C 84 % 988,9 hPa 0,0 l/m 0,2 km/h N 0,5 C 2,9 C 3,6 km/h
02.02.2013 08:00 3,0 C 85 % 989,2 hPa 0,0 l/m 0,1 km/h N 0,8 C 3,0 C 2,8 km/h
02.02.2013 09:00 3,8 C 85 % 990,1 hPa 0,0 l/m 0,8 km/h N 1,5 C 3,8 C 5,6 km/h
02.02.2013 10:00 5,4 C 84 % 990,8 hPa 0,5 l/m 2,9 km/h N 2,9 C 5,1 C 12,0 km/h
02.02.2013 11:00 7,8 C 83 % 991,4 hPa 0,3 l/m 12,0 km/h N 5,1 C 4,0 C 27,4 km/h
02.02.2013 12:00 6,8 C 82 % 992,3 hPa 0,3 l/m 15,5 km/h N 3,9 C 1,0 C 34,6 km/h
02.02.2013 13:00 6,1 C 84 % 993,4 hPa 1,0 l/m 14,0 km/h N 3,6 C 0,9 C 30,2 km/h
02.02.2013 14:00 5,0 C 85 % 994,9 hPa 1,8 l/m 14,0 km/h N 2,6 C -0,3 C 31,8 km/h
02.02.2013 15:00 4,8 C 83 % 996,1 hPa 0,3 l/m 12,6 km/h N 2,2 C 0,1 C 28,2 km/h
02.02.2013 16:00 4,9 C 78 % 997,4 hPa 0,0 l/m 12,6 km/h N 1,4 C 0,4 C 28,1 km/h
02.02.2013 17:00 4,9 C 74 % 998,2 hPa 0,0 l/m 14,9 km/h N 0,7 C -0,9 C 33,4 km/h
02.02.2013 18:00 5,0 C 72 % 999,3 hPa 0,0 l/m 16,0 km/h N 0,4 C -1,4 C 36,6 km/h
02.02.2013 19:00 4,7 C 73 % 1000,1 hPa 0,0 l/m 15,7 km/h N 0,3 C -1,6 C 36,2 km/h
02.02.2013 20:00 4,4 C 71 % 1001,2 hPa 0,0 l/m 14,3 km/h N -0,4 C -1,2 C 32,6 km/h
02.02.2013 21:00 4,1 C 72 % 1002,0 hPa 0,0 l/m 9,8 km/h N -0,5 C 1,3 C 23,3 km/h
02.02.2013 22:00 3,8 C 71 % 1002,4 hPa 0,0 l/m 13,6 km/h N -1,0 C -1,6 C 33,0 km/h
02.02.2013 23:00 3,7 C 71 % 1003,3 hPa 0,0 l/m 11,0 km/h N -1,1 C -0,0 C 26,2 km/h
03.02.2013 00:00 3,7 C 71 % 1004,0 hPa 0,0 l/m 11,7 km/h N -1,0 C -0,5 C 27,4 km/h
03.02.2013 01:00 3,2 C 71 % 1005,2 hPa 0,0 l/m 13,6 km/h N -1,5 C -2,3 C 31,4 km/h
03.02.2013 02:00 2,5 C 68 % 1005,9 hPa 0,0 l/m 13,1 km/h N -2,9 C -2,8 C 28,6 km/h
03.02.2013 03:00 1,8 C 65 % 1006,2 hPa 0,0 l/m 15,3 km/h N -4,2 C -5,0 C 32,6 km/h
03.02.2013 04:00 1,2 C 60 % 1007,6 hPa 0,0 l/m 17,5 km/h N -5,8 C -6,9 C 37,0 km/h
03.02.2013 05:00 0,7 C 59 % 1008,5 hPa 0,0 l/m 14,7 km/h N -6,5 C -5,9 C 30,2 km/h
03.02.2013 06:00 0,7 C 62 % 1008,8 hPa 0,0 l/m 18,1 km/h N -5,8 C -7,8 C 39,4 km/h
03.02.2013 07:00 0,8 C 58 % 1009,2 hPa 0,0 l/m 21,5 km/h N -6,4 C -9,2 C 43,0 km/h
03.02.2013 08:00 0,6 C 63 % 1010,2 hPa 0,0 l/m 21,9 km/h N -5,5 C -9,6 C 41,5 km/h
03.02.2013 09:00 1,0 C 67 % 1011,0 hPa 0,0 l/m 21,5 km/h N -4,3 C -9,0 C 41,9 km/h
03.02.2013 10:00 1,7 C 63 % 1011,4 hPa 0,0 l/m 16,5 km/h N -4,7 C -5,8 C 35,4 km/h
03.02.2013 11:00 2,3 C 56 % 1012,1 hPa 0,0 l/m 16,5 km/h N -5,5 C -4,9 C 36,6 km/h
03.02.2013 12:00 3,8 C 48 % 1012,3 hPa 0,0 l/m 20,4 km/h N -6,1 C -4,8 C 39,8 km/h
03.02.2013 13:00 4,5 C 44 % 1012,7 hPa 0,0 l/m 16,8 km/h N -6,8 C -2,4 C 37,0 km/h
03.02.2013 14:00 4,5 C 46 % 1012,8 hPa 0,0 l/m 15,2 km/h N -6,1 C -1,6 C 33,4 km/h
03.02.2013 15:00 4,1 C 60 % 1013,0 hPa 0,0 l/m 14,6 km/h N -3,0 C -1,8 C 29,8 km/h
03.02.2013 16:00 3,4 C 67 % 1013,5 hPa 0,0 l/m 13,0 km/h N -2,2 C -1,7 C 28,2 km/h
03.02.2013 17:00 3,1 C 64 % 1014,4 hPa 0,0 l/m 12,8 km/h N -3,0 C -1,8 C 28,2 km/h
03.02.2013 18:00 3,0 C 58 % 1015,1 hPa 0,0 l/m 10,4 km/h N -4,5 C -0,2 C 24,1 km/h
03.02.2013 19:00 3,0 C 63 % 1015,5 hPa 0,0 l/m 8,1 km/h N -3,3 C 1,5 C 22,5 km/h
03.02.2013 20:00 2,8 C 65 % 1015,5 hPa 0,0 l/m 9,1 km/h N -3,1 C 0,4 C 23,3 km/h
03.02.2013 21:00 2,6 C 69 % 1015,2 hPa 0,0 l/m 9,7 km/h N -2,6 C -0,3 C 24,5 km/h
03.02.2013 22:00 2,9 C 65 % 1014,6 hPa 0,0 l/m 13,0 km/h N -3,1 C -2,3 C 31,4 km/h
03.02.2013 23:00 3,0 C 66 % 1013,5 hPa 0,0 l/m 14,9 km/h N -2,8 C -3,3 C 32,6 km/h
Min-Datum _ 28.01.13 31.01.13 02.02.13 - 28.01.13 - 28.01.13 03.02.13 28.01.13
_ Min-Zeit 00:00 17:30 06:45 - 00:00 - 00:00 07:30 00:00
Minimum _ -5,6 C 34 % 988,6 hPa - 0,0 km/h - -7,6 C -10,1 C 0,0 km/h
Max-Datum _ 30.01.13 28.01.13 29.01.13 29.01.13 31.01.13 - 30.01.13 30.01.13 31.01.13
_ Max-Zeit 21:30 00:00 01:30 13:00 03:15 - 13:30 21:00 12:15
Maximum _ 15,6 C 86 % 1021,6 hPa 2,1 l/m 24,9 km/h
N
- 8,4 C 14,9 C 66,0 km/h
N
Durchschnitt _ 5,5 C 71 % 1010,3 hPa #22,6 l/m 9,8 km/h N 0,3 C 2,2 C 24,0 km/h